createdAt,value
2023-05-01T00:02:25.652Z,10.30
2023-05-01T00:04:54.281Z,7.90
2023-05-01T00:07:22.357Z,10.90
2023-05-01T00:09:51.719Z,8.50
2023-05-01T00:12:19.476Z,9.13
2023-05-01T00:14:47.997Z,9.40
2023-05-01T00:17:16.518Z,8.33
2023-05-01T00:19:44.187Z,5.80
2023-05-01T00:22:12.099Z,9.30
2023-05-01T00:24:39.711Z,5.63
2023-05-01T00:27:08.089Z,8.67
2023-05-01T00:29:35.736Z,8.63
2023-05-01T00:32:05.871Z,6.40
2023-05-01T00:34:35.413Z,9.57
2023-05-01T00:37:03.765Z,7.90
2023-05-01T00:39:31.784Z,7.67
2023-05-01T00:41:59.583Z,9.30
2023-05-01T00:44:27.534Z,7.10
2023-05-01T00:46:56.820Z,7.63
2023-05-01T00:49:24.825Z,8.67
2023-05-01T00:51:54.428Z,10.00
2023-05-01T00:54:25.434Z,8.40
2023-05-01T00:56:54.001Z,9.27
2023-05-01T00:59:22.667Z,8.80
2023-05-01T01:01:53.270Z,6.33
2023-05-01T01:04:30.376Z,7.53
2023-05-01T01:07:51.145Z,8.33
2023-05-01T01:10:51.642Z,7.60
2023-05-01T01:13:52.932Z,9.77
2023-05-01T01:16:46.745Z,6.83
2023-05-01T01:20:26.025Z,12.97
2023-05-01T01:23:59.650Z,6.00
2023-05-01T01:27:20.726Z,8.83
2023-05-01T01:31:14.405Z,9.20
2023-05-01T01:34:04.380Z,5.73
2023-05-01T01:36:56.542Z,11.27
2023-05-01T01:40:04.368Z,9.83
2023-05-01T01:43:03.436Z,8.17
2023-05-01T01:45:43.324Z,8.80
2023-05-01T01:48:24.147Z,6.77
2023-05-01T01:50:59.063Z,7.30
2023-05-01T01:53:31.295Z,9.53
2023-05-01T01:56:04.511Z,7.03
2023-05-01T01:58:36.961Z,7.30
2023-05-01T02:01:07.020Z,9.07
2023-05-01T02:03:39.628Z,11.93
2023-05-01T02:06:10.781Z,5.80
2023-05-01T02:08:41.247Z,8.20
2023-05-01T02:11:14.697Z,6.80
2023-05-01T02:13:46.520Z,7.07
2023-05-01T02:16:19.777Z,9.77
2023-05-01T02:18:53.220Z,9.60
2023-05-01T02:21:24.811Z,10.93
2023-05-01T02:23:55.634Z,10.13
2023-05-01T02:26:29.821Z,5.77
2023-05-01T02:28:57.904Z,6.10
2023-05-01T02:31:25.857Z,10.40
2023-05-01T02:33:54.006Z,7.97
2023-05-01T02:36:21.795Z,5.73
2023-05-01T02:38:51.318Z,8.00
2023-05-01T02:41:24.997Z,7.90
2023-05-01T02:44:06.690Z,8.20
2023-05-01T02:46:38.997Z,8.93
2023-05-01T02:49:08.429Z,8.20
2023-05-01T02:51:38.526Z,7.60
2023-05-01T02:54:08.534Z,6.50
2023-05-01T02:56:37.660Z,10.43
2023-05-01T02:59:05.364Z,8.73
2023-05-01T03:01:33.346Z,6.20
2023-05-01T03:04:01.167Z,8.47
2023-05-01T03:06:29.353Z,6.40
2023-05-01T03:08:57.242Z,6.50
2023-05-01T03:11:24.910Z,11.50
2023-05-01T03:13:52.725Z,7.97
2023-05-01T03:16:20.464Z,5.60
2023-05-01T03:18:48.764Z,8.93
2023-05-01T03:21:18.478Z,7.10
2023-05-01T03:23:47.118Z,9.00
2023-05-01T03:26:15.141Z,8.50
2023-05-01T03:28:43.121Z,13.00
2023-05-01T03:31:10.916Z,5.80
2023-05-01T03:33:40.471Z,5.30
2023-05-01T03:36:11.580Z,7.43
2023-05-01T03:38:39.815Z,9.17
2023-05-01T03:41:10.629Z,8.90
2023-05-01T03:43:38.338Z,10.60
2023-05-01T03:46:12.535Z,6.50
2023-05-01T03:48:40.436Z,9.90
2023-05-01T03:51:08.639Z,8.70
2023-05-01T03:53:37.665Z,9.70
2023-05-01T03:56:07.697Z,8.20
2023-05-01T03:58:36.938Z,9.70
2023-05-01T04:01:08.134Z,5.67
2023-05-01T04:03:40.391Z,7.43
2023-05-01T04:06:08.841Z,5.13
2023-05-01T04:08:36.805Z,6.73
2023-05-01T04:11:04.765Z,7.20
2023-05-01T04:13:32.622Z,9.53
2023-05-01T04:16:00.615Z,7.93
2023-05-01T04:18:29.134Z,7.30
2023-05-01T04:21:00.220Z,6.80
2023-05-01T04:23:28.206Z,9.57
2023-05-01T04:25:59.253Z,6.33
2023-05-01T04:28:27.935Z,13.13
2023-05-01T04:30:57.096Z,9.33
2023-05-01T04:33:25.137Z,7.50
2023-05-01T04:35:52.932Z,10.83
2023-05-01T04:38:21.299Z,8.37
2023-05-01T04:40:49.626Z,7.33
2023-05-01T04:43:17.634Z,7.70
2023-05-01T04:45:45.864Z,8.53
2023-05-01T04:48:13.667Z,6.60
2023-05-01T04:50:41.495Z,7.53
2023-05-01T04:53:09.833Z,11.33
2023-05-01T04:55:38.107Z,10.20
2023-05-01T04:58:12.187Z,8.03
2023-05-01T05:00:40.461Z,5.23
2023-05-01T05:03:11.118Z,9.30
2023-05-01T05:05:39.143Z,9.03
2023-05-01T05:08:09.446Z,7.10
2023-05-01T05:10:49.031Z,7.17
2023-05-01T05:13:27.844Z,8.00
2023-05-01T05:16:05.032Z,5.60
2023-05-01T05:18:33.379Z,8.93
2023-05-01T05:21:08.729Z,7.73
2023-05-01T05:23:38.191Z,10.33
2023-05-01T05:26:06.868Z,6.90
2023-05-01T05:28:34.500Z,8.40
2023-05-01T05:31:03.032Z,8.80
2023-05-01T05:33:32.793Z,8.87
2023-05-01T05:36:01.479Z,7.60
2023-05-01T05:38:35.081Z,5.77
2023-05-01T05:41:04.993Z,5.63
2023-05-01T05:43:33.923Z,7.30
2023-05-01T05:46:02.111Z,9.73
2023-05-01T05:48:32.678Z,6.97
2023-05-01T05:51:00.904Z,7.53
2023-05-01T05:53:29.210Z,6.50
2023-05-01T05:55:57.353Z,8.90
2023-05-01T05:58:25.826Z,10.00
2023-05-01T06:00:55.903Z,10.27
2023-05-01T06:03:24.304Z,7.60
2023-05-01T06:05:55.079Z,6.70
2023-05-01T06:08:22.903Z,7.33
2023-05-01T06:10:50.772Z,9.87
2023-05-01T06:13:18.615Z,7.83
2023-05-01T06:15:49.485Z,8.07
2023-05-01T06:18:17.622Z,9.00
2023-05-01T06:20:47.368Z,8.37
2023-05-01T06:23:16.398Z,16.73
2023-05-01T06:26:13.170Z,7.90
2023-05-01T06:28:41.705Z,9.43
2023-05-01T06:31:09.569Z,9.37
2023-05-01T06:33:42.605Z,10.23
2023-05-01T06:36:22.232Z,8.77
2023-05-01T06:38:49.972Z,6.53
2023-05-01T06:41:18.184Z,9.43
2023-05-01T06:43:46.539Z,9.23
2023-05-01T06:46:15.089Z,8.93
2023-05-01T06:48:42.928Z,7.10
2023-05-01T06:51:16.096Z,6.83
2023-05-01T06:53:44.026Z,7.13
2023-05-01T06:56:11.684Z,7.57
2023-05-01T06:58:39.447Z,7.70
2023-05-01T07:01:07.817Z,9.63
2023-05-01T07:03:36.320Z,8.80
2023-05-01T07:06:04.681Z,5.87
2023-05-01T07:08:32.873Z,7.10
2023-05-01T07:11:00.792Z,8.53
2023-05-01T07:13:28.786Z,10.43
2023-05-01T07:15:56.861Z,6.43
2023-05-01T07:18:24.850Z,10.90
2023-05-01T07:20:52.963Z,5.70
2023-05-01T07:23:20.882Z,8.97
2023-05-01T07:25:48.819Z,7.03
2023-05-01T07:28:18.324Z,8.90
2023-05-01T07:30:46.217Z,6.93
2023-05-01T07:33:14.211Z,7.63
2023-05-01T07:35:43.130Z,6.17
2023-05-01T07:38:10.945Z,6.03
2023-05-01T07:40:38.693Z,6.00
2023-05-01T07:43:07.475Z,5.50
2023-05-01T07:45:35.463Z,4.93
2023-05-01T07:48:03.585Z,6.03
2023-05-01T07:50:31.790Z,7.30
2023-05-01T07:52:59.796Z,8.77
2023-05-01T07:55:28.150Z,8.30
2023-05-01T07:57:56.206Z,6.10
2023-05-01T08:00:24.490Z,8.07
2023-05-01T08:02:52.748Z,10.03
2023-05-01T08:05:20.812Z,7.83
2023-05-01T08:07:48.737Z,5.70
2023-05-01T08:10:16.928Z,4.87
2023-05-01T08:12:44.956Z,7.57
2023-05-01T08:15:12.692Z,6.97
2023-05-01T08:17:40.714Z,11.40
2023-05-01T08:20:10.053Z,4.93
2023-05-01T08:22:37.880Z,6.97
2023-05-01T08:25:07.803Z,5.43
2023-05-01T08:27:36.025Z,6.80
2023-05-01T08:30:04.721Z,6.60
2023-05-01T08:32:32.581Z,4.67
2023-05-01T08:35:00.372Z,10.63
2023-05-01T08:37:28.190Z,10.07
2023-05-01T08:39:56.409Z,8.60
2023-05-01T08:42:24.882Z,6.13
2023-05-01T08:44:59.439Z,4.50
2023-05-01T08:47:30.777Z,6.33
2023-05-01T08:50:01.936Z,8.03
2023-05-01T08:52:32.526Z,6.03
2023-05-01T08:55:02.755Z,4.97
2023-05-01T08:57:33.461Z,5.70
2023-05-01T09:00:05.526Z,7.60
2023-05-01T09:02:38.054Z,4.37
2023-05-01T09:05:09.414Z,4.77
2023-05-01T09:07:39.235Z,4.27
2023-05-01T09:10:08.179Z,4.27
2023-05-01T09:12:36.842Z,3.67
2023-05-01T09:15:07.446Z,5.00
2023-05-01T09:17:37.281Z,4.00
2023-05-01T09:20:07.832Z,3.60
2023-05-01T09:22:36.685Z,4.50
2023-05-01T09:25:05.836Z,5.10
2023-05-01T09:27:38.158Z,3.83
2023-05-01T09:30:09.198Z,5.50
2023-05-01T09:32:37.946Z,5.47
2023-05-01T09:35:15.494Z,4.20
2023-05-01T09:37:46.840Z,3.33
2023-05-01T09:40:16.545Z,4.50
2023-05-01T09:42:56.350Z,6.83
2023-05-01T09:45:26.764Z,3.67
2023-05-01T09:48:12.467Z,2.60
2023-05-01T09:50:42.413Z,7.07
2023-05-01T09:53:11.746Z,2.70
2023-05-01T09:55:39.615Z,3.97
2023-05-01T09:58:08.122Z,4.43
2023-05-01T10:00:52.127Z,6.17
2023-05-01T10:03:20.882Z,4.33
2023-05-01T10:05:49.213Z,3.73
2023-05-01T10:08:17.353Z,4.47
2023-05-01T10:10:45.171Z,3.30
2023-05-01T10:13:18.116Z,5.53
2023-05-01T10:15:50.266Z,3.80
2023-05-01T10:18:20.337Z,3.60
2023-05-01T10:20:48.898Z,4.40
2023-05-01T10:23:16.878Z,3.17
2023-05-01T10:25:48.618Z,2.90
2023-05-01T10:28:16.664Z,4.37
2023-05-01T10:30:50.562Z,4.80
2023-05-01T10:33:19.418Z,5.77
2023-05-01T10:36:00.178Z,5.00
2023-05-01T10:38:35.606Z,7.03
2023-05-01T10:41:04.219Z,6.60
2023-05-01T10:43:32.503Z,5.50
2023-05-01T10:46:21.235Z,4.20
2023-05-01T10:48:58.448Z,6.40
2023-05-01T10:51:28.343Z,5.33
2023-05-01T10:54:27.472Z,4.40
2023-05-01T10:57:03.649Z,5.03
2023-05-01T11:00:05.465Z,4.70
2023-05-01T11:02:33.715Z,3.83
2023-05-01T11:05:01.880Z,3.67
2023-05-01T11:07:31.711Z,7.13
2023-05-01T11:09:59.759Z,6.10
2023-05-01T11:12:48.609Z,8.60
2023-05-01T11:15:34.677Z,5.50
2023-05-01T11:18:04.775Z,4.37
2023-05-01T11:20:38.492Z,6.07
2023-05-01T11:23:06.452Z,5.10
2023-05-01T11:25:37.082Z,4.90
2023-05-01T11:28:06.975Z,4.30
2023-05-01T11:30:40.475Z,4.33
2023-05-01T11:33:10.552Z,4.73
2023-05-01T11:35:39.636Z,3.80
2023-05-01T11:38:21.428Z,3.80
2023-05-01T11:41:00.910Z,4.10
2023-05-01T11:43:29.086Z,2.63
2023-05-01T11:46:02.579Z,3.33
2023-05-01T11:48:31.885Z,2.63
2023-05-01T11:50:59.957Z,6.03
2023-05-01T11:53:30.139Z,3.30
2023-05-01T11:55:59.735Z,4.20
2023-05-01T11:58:36.528Z,5.03
2023-05-01T12:01:07.526Z,5.33
2023-05-01T12:03:45.522Z,9.63
2023-05-01T12:06:15.234Z,5.10
2023-05-01T12:08:51.494Z,2.87
2023-05-01T12:11:21.422Z,4.13
2023-05-01T12:13:50.407Z,3.63
2023-05-01T12:16:18.738Z,4.17
2023-05-01T12:18:47.201Z,3.47
2023-05-01T12:21:18.321Z,3.67
2023-05-01T12:23:46.826Z,4.63
2023-05-01T12:26:25.858Z,5.40
2023-05-01T12:29:07.608Z,3.53
2023-05-01T12:31:37.619Z,4.93
2023-05-01T12:34:08.382Z,5.73
2023-05-01T12:36:37.929Z,2.93
2023-05-01T12:39:12.540Z,4.33
2023-05-01T12:41:46.225Z,3.10
2023-05-01T12:44:30.940Z,4.10
2023-05-01T12:47:10.131Z,3.50
2023-05-01T12:49:38.723Z,4.00
2023-05-01T12:52:09.387Z,4.83
2023-05-01T12:54:45.283Z,5.00
2023-05-01T12:57:18.970Z,3.40
2023-05-01T12:59:49.596Z,6.07
2023-05-01T13:02:18.920Z,3.57
2023-05-01T13:04:50.562Z,5.23
2023-05-01T13:07:21.861Z,2.80
2023-05-01T13:10:00.559Z,2.97
2023-05-01T13:12:30.403Z,2.70
2023-05-01T13:14:59.717Z,7.60
2023-05-01T13:17:33.249Z,5.47
2023-05-01T13:20:07.998Z,6.60
2023-05-01T13:22:39.278Z,3.00
2023-05-01T13:25:23.597Z,2.97
2023-05-01T13:27:53.794Z,2.63
2023-05-01T13:30:33.795Z,4.50
2023-05-01T13:33:02.170Z,3.47
2023-05-01T13:35:30.979Z,4.57
2023-05-01T13:37:58.769Z,3.30
2023-05-01T13:40:28.437Z,2.87
2023-05-01T13:42:56.402Z,2.50
2023-05-01T13:45:26.461Z,2.30
2023-05-01T13:47:55.595Z,4.40
2023-05-01T13:50:23.494Z,3.90
2023-05-01T13:52:51.417Z,3.17
2023-05-01T13:55:22.025Z,4.07
2023-05-01T13:57:50.090Z,3.10
2023-05-01T14:00:19.461Z,3.43
2023-05-01T14:02:49.715Z,3.37
2023-05-01T14:05:30.337Z,3.60
2023-05-01T14:08:02.703Z,3.70
2023-05-01T14:10:35.844Z,2.37
2023-05-01T14:13:05.772Z,4.90
2023-05-01T14:15:37.319Z,3.73
2023-05-01T14:18:07.270Z,5.37
2023-05-01T14:20:35.623Z,6.80
2023-05-01T14:23:05.915Z,4.10
2023-05-01T14:25:35.639Z,2.60
2023-05-01T14:28:12.325Z,2.50
2023-05-01T14:30:42.110Z,3.00
2023-05-01T14:33:14.654Z,3.23
2023-05-01T14:35:53.503Z,4.63
2023-05-01T14:38:25.881Z,4.33
2023-05-01T14:40:54.227Z,3.77
2023-05-01T14:43:22.517Z,3.07
2023-05-01T14:45:50.511Z,2.80
2023-05-01T14:48:34.752Z,3.10
2023-05-01T14:51:06.619Z,2.57
2023-05-01T14:53:34.819Z,4.53
2023-05-01T14:56:02.666Z,4.30
2023-05-01T14:58:30.688Z,2.50
2023-05-01T15:00:58.404Z,4.67
2023-05-01T15:03:29.194Z,2.77
2023-05-01T15:05:57.565Z,2.17
2023-05-01T15:08:25.289Z,2.27
2023-05-01T15:10:53.126Z,2.07
2023-05-01T15:13:21.936Z,3.87
2023-05-01T15:15:49.730Z,2.00
2023-05-01T15:18:17.788Z,3.90
2023-05-01T15:20:46.412Z,3.40
2023-05-01T15:23:15.195Z,5.70
2023-05-01T15:25:47.765Z,7.87
2023-05-01T15:28:15.591Z,4.83
2023-05-01T15:30:47.820Z,4.90
2023-05-01T15:33:18.706Z,4.40
2023-05-01T15:35:48.848Z,4.40
2023-05-01T15:38:16.994Z,4.50
2023-05-01T15:40:44.588Z,5.07
2023-05-01T15:43:12.333Z,5.10
2023-05-01T15:45:43.396Z,4.50
2023-05-01T15:48:12.086Z,8.00
2023-05-01T15:50:39.943Z,3.83
2023-05-01T15:53:07.604Z,5.00
2023-05-01T15:55:35.166Z,4.43
2023-05-01T15:58:02.961Z,6.33
2023-05-01T16:00:31.493Z,4.60
2023-05-01T16:03:04.406Z,4.10
2023-05-01T16:05:32.628Z,4.53
2023-05-01T16:08:05.655Z,5.30
2023-05-01T16:10:37.421Z,3.73
2023-05-01T16:13:08.515Z,3.83
2023-05-01T16:15:38.290Z,6.33
2023-05-01T16:18:06.724Z,4.40
2023-05-01T16:20:43.372Z,4.30
2023-05-01T16:23:14.520Z,3.90
2023-05-01T16:25:43.755Z,6.70
2023-05-01T16:28:14.570Z,4.40
2023-05-01T16:30:44.237Z,3.30
2023-05-01T16:33:20.346Z,3.20
2023-05-01T16:35:50.194Z,2.73
2023-05-01T16:38:19.261Z,4.10
2023-05-01T16:40:48.378Z,3.30
2023-05-01T16:43:16.724Z,4.10
2023-05-01T16:45:44.813Z,2.80
2023-05-01T16:48:23.682Z,10.50
2023-05-01T16:50:52.732Z,5.67
2023-05-01T16:53:21.610Z,8.63
2023-05-01T16:55:49.449Z,7.03
2023-05-01T16:58:17.688Z,3.27
2023-05-01T17:00:45.593Z,4.03
2023-05-01T17:03:16.250Z,5.07
2023-05-01T17:05:44.175Z,4.43
2023-05-01T17:08:12.139Z,3.80
2023-05-01T17:10:39.920Z,5.37
2023-05-01T17:13:08.470Z,3.50
2023-05-01T17:15:36.254Z,3.77
2023-05-01T17:18:05.880Z,3.30
2023-05-01T17:20:33.772Z,4.90
2023-05-01T17:23:01.495Z,4.30
2023-05-01T17:25:29.496Z,4.37
2023-05-01T17:27:57.215Z,5.03
2023-05-01T17:30:25.276Z,7.67
2023-05-01T17:32:53.759Z,3.20
2023-05-01T17:35:21.671Z,3.93
2023-05-01T17:37:49.380Z,5.20
2023-05-01T17:40:17.709Z,3.07
2023-05-01T17:42:45.628Z,3.50
2023-05-01T17:45:13.745Z,4.87
2023-05-01T17:47:42.994Z,3.53
2023-05-01T17:50:14.165Z,5.00
2023-05-01T17:52:45.229Z,4.03
2023-05-01T17:55:18.494Z,4.40
2023-05-01T17:57:47.869Z,3.23
2023-05-01T18:00:16.825Z,3.47
2023-05-01T18:02:46.904Z,4.63
2023-05-01T18:05:15.314Z,3.80
2023-05-01T18:07:43.305Z,3.53
2023-05-01T18:10:11.600Z,8.13
2023-05-01T18:12:39.972Z,5.40
2023-05-01T18:15:09.862Z,4.57
2023-05-01T18:17:38.366Z,10.10
2023-05-01T18:20:07.982Z,4.00
2023-05-01T18:22:36.086Z,4.73
2023-05-01T18:25:05.924Z,3.10
2023-05-01T18:27:34.314Z,4.07
2023-05-01T18:30:02.669Z,3.80
2023-05-01T18:32:43.266Z,6.80
2023-05-01T18:35:15.346Z,5.17
2023-05-01T18:37:44.152Z,6.63
2023-05-01T18:40:13.442Z,5.27
2023-05-01T18:42:43.139Z,6.57
2023-05-01T18:45:11.349Z,5.60
2023-05-01T18:47:39.921Z,6.77
2023-05-01T18:50:10.144Z,7.03
2023-05-01T18:52:37.980Z,5.20
2023-05-01T18:55:06.940Z,8.53
2023-05-01T18:57:35.262Z,7.00
2023-05-01T19:00:03.182Z,5.53
2023-05-01T19:02:31.014Z,6.10
2023-05-01T19:04:59.020Z,7.93
2023-05-01T19:07:27.069Z,6.07
2023-05-01T19:09:55.447Z,8.90
2023-05-01T19:12:23.398Z,7.53
2023-05-01T19:14:51.247Z,8.40
2023-05-01T19:17:19.674Z,7.40
2023-05-01T19:19:52.185Z,7.00
2023-05-01T19:22:20.673Z,5.90
2023-05-01T19:24:48.505Z,5.90
2023-05-01T19:27:18.095Z,5.50
2023-05-01T19:29:46.160Z,7.90
2023-05-01T19:32:14.088Z,6.47
2023-05-01T19:34:42.108Z,6.20
2023-05-01T19:37:09.965Z,7.80
2023-05-01T19:39:38.785Z,8.60
2023-05-01T19:42:06.798Z,6.47
2023-05-01T19:44:34.637Z,7.50
2023-05-01T19:47:05.643Z,6.90
2023-05-01T19:49:33.475Z,10.30
2023-05-01T19:52:01.482Z,7.90
2023-05-01T19:54:29.273Z,8.07
2023-05-01T19:56:57.490Z,8.33
2023-05-01T19:59:25.480Z,10.93
2023-05-01T20:01:53.812Z,7.40
2023-05-01T20:04:25.529Z,8.77
2023-05-01T20:06:53.454Z,6.53
2023-05-01T20:09:21.281Z,9.50
2023-05-01T20:11:49.281Z,7.03
2023-05-01T20:14:17.794Z,6.10
2023-05-01T20:16:46.343Z,9.60
2023-05-01T20:19:16.508Z,10.30
2023-05-01T20:21:44.439Z,8.10
2023-05-01T20:24:12.273Z,9.63
2023-05-01T20:26:40.223Z,9.03
2023-05-01T20:29:09.410Z,7.63
2023-05-01T20:31:37.542Z,8.80
2023-05-01T20:34:05.754Z,8.60
2023-05-01T20:36:33.906Z,13.13
2023-05-01T20:39:01.868Z,11.60
2023-05-01T20:41:29.680Z,12.03
2023-05-01T20:43:57.627Z,10.47
2023-05-01T20:46:25.516Z,8.63
2023-05-01T20:48:54.354Z,9.10
2023-05-01T20:51:22.342Z,8.73
2023-05-01T20:53:50.637Z,10.60
2023-05-01T20:56:18.496Z,10.17
2023-05-01T20:58:46.240Z,14.40
2023-05-01T21:01:13.972Z,10.40
2023-05-01T21:03:41.971Z,10.63
2023-05-01T21:06:10.186Z,11.13
2023-05-01T21:08:38.113Z,10.93
2023-05-01T21:11:06.489Z,11.30
2023-05-01T21:13:34.549Z,14.27
2023-05-01T21:16:02.953Z,10.63
2023-05-01T21:18:34.572Z,12.33
2023-05-01T21:21:05.652Z,11.13
2023-05-01T21:23:33.649Z,16.00
2023-05-01T21:26:01.612Z,12.10
2023-05-01T21:28:29.643Z,13.17
2023-05-01T21:31:00.109Z,14.60
2023-05-01T21:33:28.651Z,15.03
2023-05-01T21:35:56.741Z,13.67
2023-05-01T21:38:24.467Z,12.03
2023-05-01T21:40:52.187Z,13.03
2023-05-01T21:43:20.475Z,14.00
2023-05-01T21:45:48.825Z,12.10
2023-05-01T21:48:19.980Z,16.00
2023-05-01T21:50:51.428Z,14.87
2023-05-01T21:53:19.325Z,15.37
2023-05-01T21:55:47.968Z,15.57
2023-05-01T21:58:15.935Z,14.33
2023-05-01T22:00:45.749Z,19.13
2023-05-01T22:03:18.634Z,15.53
2023-05-01T22:05:46.694Z,18.70
2023-05-01T22:08:14.412Z,15.63
2023-05-01T22:10:43.150Z,18.97
2023-05-01T22:13:11.829Z,19.83
2023-05-01T22:15:39.742Z,18.80
2023-05-01T22:18:07.817Z,19.00
2023-05-01T22:20:35.530Z,19.40
2023-05-01T22:23:03.228Z,19.60
2023-05-01T22:25:30.960Z,21.93
2023-05-01T22:28:00.650Z,21.07
2023-05-01T22:30:28.302Z,18.60
2023-05-01T22:32:56.147Z,21.37
2023-05-01T22:35:23.922Z,20.83
2023-05-01T22:37:51.518Z,22.00
2023-05-01T22:40:19.243Z,22.90
2023-05-01T22:42:47.524Z,21.07
2023-05-01T22:45:15.736Z,21.40
2023-05-01T22:47:43.540Z,23.23
2023-05-01T22:50:12.088Z,21.87
2023-05-01T22:52:40.382Z,24.30
2023-05-01T22:55:08.755Z,24.10
2023-05-01T22:57:36.431Z,27.43
2023-05-01T23:00:05.978Z,23.53
2023-05-01T23:02:34.206Z,23.50
2023-05-01T23:05:02.083Z,22.20
2023-05-01T23:07:29.813Z,23.53
2023-05-01T23:09:57.874Z,22.40
2023-05-01T23:12:26.046Z,23.00
2023-05-01T23:14:55.522Z,27.10
2023-05-01T23:17:23.523Z,23.30
2023-05-01T23:19:51.191Z,26.43
2023-05-01T23:22:19.993Z,24.30
2023-05-01T23:24:49.824Z,27.50
2023-05-01T23:27:20.115Z,31.53
2023-05-01T23:29:58.792Z,29.37
2023-05-01T23:32:32.003Z,28.67
2023-05-01T23:35:15.707Z,28.50
2023-05-01T23:37:43.965Z,31.93
2023-05-01T23:40:12.128Z,28.97
2023-05-01T23:42:40.535Z,28.27
2023-05-01T23:45:09.710Z,34.33
2023-05-01T23:47:38.968Z,26.83
2023-05-01T23:50:08.179Z,29.00
2023-05-01T23:52:36.384Z,32.00
2023-05-01T23:55:05.784Z,32.80
2023-05-01T23:57:33.402Z,36.40
